sensor_id;sensor_type;location;lat;lon;timestamp;pressure;altitude;pressure_sealevel;temperature
34310;BMP280;61664;48.112;11.662;2022-11-15T00:01:16;95436.06;;;8.31
34310;BMP280;61664;48.112;11.662;2022-11-15T00:03:45;95437.06;;;8.34
34310;BMP280;61664;48.112;11.662;2022-11-15T00:06:12;95431.13;;;8.30
34310;BMP280;61664;48.112;11.662;2022-11-15T00:08:39;95433.97;;;8.35
34310;BMP280;61664;48.112;11.662;2022-11-15T00:11:09;95438.84;;;8.37
34310;BMP280;61664;48.112;11.662;2022-11-15T00:13:36;95421.66;;;8.29
34310;BMP280;61664;48.112;11.662;2022-11-15T00:16:03;95419.75;;;8.29
34310;BMP280;61664;48.112;11.662;2022-11-15T00:18:31;95426.16;;;8.32
34310;BMP280;61664;48.112;11.662;2022-11-15T00:21:09;95415.75;;;8.24
34310;BMP280;61664;48.112;11.662;2022-11-15T00:23:37;95422.31;;;8.33
34310;BMP280;61664;48.112;11.662;2022-11-15T00:26:04;95420.50;;;8.30
34310;BMP280;61664;48.112;11.662;2022-11-15T00:28:32;95424.97;;;8.33
34310;BMP280;61664;48.112;11.662;2022-11-15T00:31:09;95416.66;;;8.31
34310;BMP280;61664;48.112;11.662;2022-11-15T00:33:37;95408.06;;;8.27
34310;BMP280;61664;48.112;11.662;2022-11-15T00:36:07;95412.84;;;8.32
34310;BMP280;61664;48.112;11.662;2022-11-15T00:38:40;95404.34;;;8.24
34310;BMP280;61664;48.112;11.662;2022-11-15T00:41:08;95416.03;;;8.27
34310;BMP280;61664;48.112;11.662;2022-11-15T00:43:36;95416.03;;;8.27
34310;BMP280;61664;48.112;11.662;2022-11-15T00:46:04;95411.44;;;8.18
34310;BMP280;61664;48.112;11.662;2022-11-15T00:48:31;95418.25;;;8.19
34310;BMP280;61664;48.112;11.662;2022-11-15T00:50:58;95412.63;;;8.17
34310;BMP280;61664;48.112;11.662;2022-11-15T00:53:24;95412.75;;;8.13
34310;BMP280;61664;48.112;11.662;2022-11-15T00:55:52;95411.13;;;8.16
34310;BMP280;61664;48.112;11.662;2022-11-15T00:58:21;95408.59;;;8.12
34310;BMP280;61664;48.112;11.662;2022-11-15T01:00:48;95400.88;;;8.05
34310;BMP280;61664;48.112;11.662;2022-11-15T01:03:15;95399.84;;;8.03
34310;BMP280;61664;48.112;11.662;2022-11-15T01:05:42;95380.72;;;7.86
34310;BMP280;61664;48.112;11.662;2022-11-15T01:08:15;95394.34;;;7.97
34310;BMP280;61664;48.112;11.662;2022-11-15T01:10:42;95389.28;;;7.90
34310;BMP280;61664;48.112;11.662;2022-11-15T01:13:09;95394.31;;;7.88
34310;BMP280;61664;48.112;11.662;2022-11-15T01:15:40;95384.97;;;7.83
34310;BMP280;61664;48.112;11.662;2022-11-15T01:18:07;95362.75;;;7.68
34310;BMP280;61664;48.112;11.662;2022-11-15T01:20:40;95381.09;;;7.75
34310;BMP280;61664;48.112;11.662;2022-11-15T01:23:08;95383.91;;;7.72
34310;BMP280;61664;48.112;11.662;2022-11-15T01:25:35;95370.25;;;7.70
34310;BMP280;61664;48.112;11.662;2022-11-15T01:28:02;95367.47;;;7.64
34310;BMP280;61664;48.112;11.662;2022-11-15T01:30:29;95362.56;;;7.63
34310;BMP280;61664;48.112;11.662;2022-11-15T01:32:56;95358.75;;;7.64
34310;BMP280;61664;48.112;11.662;2022-11-15T01:35:24;95348.19;;;7.51
34310;BMP280;61664;48.112;11.662;2022-11-15T01:37:51;95366.66;;;7.54
34310;BMP280;61664;48.112;11.662;2022-11-15T01:40:17;95348.72;;;7.46
34310;BMP280;61664;48.112;11.662;2022-11-15T01:42:44;95352.13;;;7.46
34310;BMP280;61664;48.112;11.662;2022-11-15T01:45:15;95349.78;;;7.48
34310;BMP280;61664;48.112;11.662;2022-11-15T01:47:51;95332.88;;;7.33
34310;BMP280;61664;48.112;11.662;2022-11-15T01:50:30;95338.03;;;7.37
34310;BMP280;61664;48.112;11.662;2022-11-15T01:52:59;95327.66;;;7.30
34310;BMP280;61664;48.112;11.662;2022-11-15T01:55:27;95329.91;;;7.31
34310;BMP280;61664;48.112;11.662;2022-11-15T01:58:00;95329.91;;;7.31
34310;BMP280;61664;48.112;11.662;2022-11-15T02:00:30;95325.00;;;7.30
34310;BMP280;61664;48.112;11.662;2022-11-15T02:02:57;95321.63;;;7.29
34310;BMP280;61664;48.112;11.662;2022-11-15T02:05:24;95310.38;;;7.25
34310;BMP280;61664;48.112;11.662;2022-11-15T02:07:53;95312.72;;;7.23
34310;BMP280;61664;48.112;11.662;2022-11-15T02:10:24;95327.25;;;7.31
34310;BMP280;61664;48.112;11.662;2022-11-15T02:12:52;95314.50;;;7.26
34310;BMP280;61664;48.112;11.662;2022-11-15T02:15:20;95322.47;;;7.26
34310;BMP280;61664;48.112;11.662;2022-11-15T02:18:15;95318.34;;;7.25
34310;BMP280;61664;48.112;11.662;2022-11-15T02:20:56;95315.69;;;7.25
34310;BMP280;61664;48.112;11.662;2022-11-15T02:33:46;95301.84;;;7.08
34310;BMP280;61664;48.112;11.662;2022-11-15T02:36:46;95292.09;;;7.05
34310;BMP280;61664;48.112;11.662;2022-11-15T02:39:37;95290.31;;;7.02
34310;BMP280;61664;48.112;11.662;2022-11-15T02:42:19;95284.56;;;7.04
34310;BMP280;61664;48.112;11.662;2022-11-15T02:45:09;95283.81;;;7.03
34310;BMP280;61664;48.112;11.662;2022-11-15T02:47:44;95284.56;;;7.04
34310;BMP280;61664;48.112;11.662;2022-11-15T02:50:24;95282.53;;;7.08
34310;BMP280;61664;48.112;11.662;2022-11-15T02:52:51;95288.84;;;7.10
34310;BMP280;61664;48.112;11.662;2022-11-15T02:55:41;95282.22;;;7.06
34310;BMP280;61664;48.112;11.662;2022-11-15T03:01:43;95288.22;;;6.97
34310;BMP280;61664;48.112;11.662;2022-11-15T03:04:30;95287.97;;;7.04
34310;BMP280;61664;48.112;11.662;2022-11-15T03:07:34;95290.72;;;7.01
34310;BMP280;61664;48.112;11.662;2022-11-15T03:10:22;95268.78;;;6.87
34310;BMP280;61664;48.112;11.662;2022-11-15T03:15:29;95278.88;;;6.92
34310;BMP280;61664;48.112;11.662;2022-11-15T03:20:36;95271.16;;;6.85
34310;BMP280;61664;48.112;11.662;2022-11-15T03:23:08;95279.31;;;6.91
34310;BMP280;61664;48.112;11.662;2022-11-15T03:25:42;95283.56;;;6.88
34310;BMP280;61664;48.112;11.662;2022-11-15T03:28:17;95274.34;;;6.80
34310;BMP280;61664;48.112;11.662;2022-11-15T03:30:48;95272.56;;;6.77
34310;BMP280;61664;48.112;11.662;2022-11-15T03:33:17;95276.41;;;6.76
34310;BMP280;61664;48.112;11.662;2022-11-15T03:35:47;95278.44;;;6.72
34310;BMP280;61664;48.112;11.662;2022-11-15T03:38:26;95267.63;;;6.67
34310;BMP280;61664;48.112;11.662;2022-11-15T03:41:04;95257.97;;;6.60
34310;BMP280;61664;48.112;11.662;2022-11-15T03:44:12;95244.31;;;6.49
34310;BMP280;61664;48.112;11.662;2022-11-15T03:46:56;95261.19;;;6.55
34310;BMP280;61664;48.112;11.662;2022-11-15T03:49:31;95248.78;;;6.52
34310;BMP280;61664;48.112;11.662;2022-11-15T03:52:02;95250.78;;;6.48
34310;BMP280;61664;48.112;11.662;2022-11-15T03:54:30;95247.13;;;6.45
34310;BMP280;61664;48.112;11.662;2022-11-15T03:56:57;95246.97;;;6.49
34310;BMP280;61664;48.112;11.662;2022-11-15T03:59:24;95236.63;;;6.42
34310;BMP280;61664;48.112;11.662;2022-11-15T04:01:51;95233.63;;;6.40
34310;BMP280;61664;48.112;11.662;2022-11-15T04:04:18;95235.44;;;6.43
34310;BMP280;61664;48.112;11.662;2022-11-15T04:06:45;95241.81;;;6.45
34310;BMP280;61664;48.112;11.662;2022-11-15T04:09:12;95240.75;;;6.43
34310;BMP280;61664;48.112;11.662;2022-11-15T04:11:39;95241.94;;;6.42
34310;BMP280;61664;48.112;11.662;2022-11-15T04:14:05;95239.91;;;6.46
34310;BMP280;61664;48.112;11.662;2022-11-15T04:16:32;95238.84;;;6.43
34310;BMP280;61664;48.112;11.662;2022-11-15T04:18:59;95238.94;;;6.40
34310;BMP280;61664;48.112;11.662;2022-11-15T04:21:44;95216.91;;;6.30
34310;BMP280;61664;48.112;11.662;2022-11-15T04:24:30;95222.84;;;6.34
34310;BMP280;61664;48.112;11.662;2022-11-15T04:27:00;95223.13;;;6.36
34310;BMP280;61664;48.112;11.662;2022-11-15T04:29:26;95207.34;;;6.32
34310;BMP280;61664;48.112;11.662;2022-11-15T04:32:05;95210.19;;;6.38
34310;BMP280;61664;48.112;11.662;2022-11-15T04:34:32;95205.31;;;6.37
34310;BMP280;61664;48.112;11.662;2022-11-15T04:36:59;95203.41;;;6.37
34310;BMP280;61664;48.112;11.662;2022-11-15T04:39:40;95199.69;;;6.35
34310;BMP280;61664;48.112;11.662;2022-11-15T04:42:08;95200.88;;;6.33
34310;BMP280;61664;48.112;11.662;2022-11-15T04:44:35;95189.31;;;6.27
34310;BMP280;61664;48.112;11.662;2022-11-15T04:47:02;95193.03;;;6.30
34310;BMP280;61664;48.112;11.662;2022-11-15T04:49:29;95191.97;;;6.27
34310;BMP280;61664;48.112;11.662;2022-11-15T04:51:56;95198.22;;;6.33
34310;BMP280;61664;48.112;11.662;2022-11-15T04:54:23;95195.28;;;6.31
34310;BMP280;61664;48.112;11.662;2022-11-15T04:56:49;95190.19;;;6.24
34310;BMP280;61664;48.112;11.662;2022-11-15T04:59:16;95199.50;;;6.29
34310;BMP280;61664;48.112;11.662;2022-11-15T05:01:43;95214.13;;;6.33
34310;BMP280;61664;48.112;11.662;2022-11-15T05:04:11;95208.81;;;6.33
34310;BMP280;61664;48.112;11.662;2022-11-15T05:06:50;95204.25;;;6.34
34310;BMP280;61664;48.112;11.662;2022-11-15T05:09:19;95205.16;;;6.31
34310;BMP280;61664;48.112;11.662;2022-11-15T05:11:47;95195.38;;;6.28
34310;BMP280;61664;48.112;11.662;2022-11-15T05:14:14;95194.38;;;6.35
34310;BMP280;61664;48.112;11.662;2022-11-15T05:16:45;95185.50;;;6.28
34310;BMP280;61664;48.112;11.662;2022-11-15T05:19:26;95197.34;;;6.37
34310;BMP280;61664;48.112;11.662;2022-11-15T05:21:53;95174.13;;;6.28
34310;BMP280;61664;48.112;11.662;2022-11-15T05:24:20;95182.53;;;6.26
34310;BMP280;61664;48.112;11.662;2022-11-15T05:26:47;95184.31;;;6.29
34310;BMP280;61664;48.112;11.662;2022-11-15T05:29:13;95178.72;;;6.27
34310;BMP280;61664;48.112;11.662;2022-11-15T05:31:41;95176.50;;;6.26
34310;BMP280;61664;48.112;11.662;2022-11-15T05:34:09;95183.69;;;6.25
34310;BMP280;61664;48.112;11.662;2022-11-15T05:36:40;95175.44;;;6.23
34310;BMP280;61664;48.112;11.662;2022-11-15T05:39:08;95164.44;;;6.12
34310;BMP280;61664;48.112;11.662;2022-11-15T05:41:51;95160.56;;;6.04
34310;BMP280;61664;48.112;11.662;2022-11-15T05:44:22;95167.03;;;6.03
34310;BMP280;61664;48.112;11.662;2022-11-15T05:46:52;95165.66;;;5.98
34310;BMP280;61664;48.112;11.662;2022-11-15T05:49:27;95159.28;;;5.96
34310;BMP280;61664;48.112;11.662;2022-11-15T05:51:57;95146.25;;;5.89
34310;BMP280;61664;48.112;11.662;2022-11-15T05:54:25;95138.75;;;5.87
34310;BMP280;61664;48.112;11.662;2022-11-15T05:56:53;95143.38;;;5.96
34310;BMP280;61664;48.112;11.662;2022-11-15T05:59:21;95150.66;;;6.05
34310;BMP280;61664;48.112;11.662;2022-11-15T06:01:49;95159.53;;;6.11
34310;BMP280;61664;48.112;11.662;2022-11-15T06:04:16;95146.09;;;6.05
34310;BMP280;61664;48.112;11.662;2022-11-15T06:06:42;95151.72;;;6.07
34310;BMP280;61664;48.112;11.662;2022-11-15T06:09:09;95157.66;;;6.11
34310;BMP280;61664;48.112;11.662;2022-11-15T06:11:36;95144.66;;;6.04
34310;BMP280;61664;48.112;11.662;2022-11-15T06:14:03;95138.31;;;6.11
34310;BMP280;61664;48.112;11.662;2022-11-15T06:16:30;95154.75;;;6.18
34310;BMP280;61664;48.112;11.662;2022-11-15T06:18:57;95142.69;;;6.17
34310;BMP280;61664;48.112;11.662;2022-11-15T06:21:24;95152.31;;;6.24
34310;BMP280;61664;48.112;11.662;2022-11-15T06:23:54;95137.06;;;6.15
34310;BMP280;61664;48.112;11.662;2022-11-15T06:26:21;95147.63;;;6.28
34310;BMP280;61664;48.112;11.662;2022-11-15T06:28:48;95148.47;;;6.25
34310;BMP280;61664;48.112;11.662;2022-11-15T06:31:15;95143.28;;;6.21
34310;BMP280;61664;48.112;11.662;2022-11-15T06:33:42;95150.38;;;6.24
34310;BMP280;61664;48.112;11.662;2022-11-15T06:36:12;95156.31;;;6.28
34310;BMP280;61664;48.112;11.662;2022-11-15T06:38:44;95147.97;;;6.17
34310;BMP280;61664;48.112;11.662;2022-11-15T06:41:13;95146.50;;;6.16
34310;BMP280;61664;48.112;11.662;2022-11-15T06:43:41;95161.88;;;6.21
34310;BMP280;61664;48.112;11.662;2022-11-15T06:46:08;95164.53;;;6.21
34310;BMP280;61664;48.112;11.662;2022-11-15T06:48:37;95159.81;;;6.25
34310;BMP280;61664;48.112;11.662;2022-11-15T06:51:05;95161.19;;;6.30
34310;BMP280;61664;48.112;11.662;2022-11-15T06:53:32;95158.41;;;6.33
34310;BMP280;61664;48.112;11.662;2022-11-15T06:56:05;95160.81;;;6.41
34310;BMP280;61664;48.112;11.662;2022-11-15T06:58:33;95156.28;;;6.41
34310;BMP280;61664;48.112;11.662;2022-11-15T07:01:12;95160.41;;;6.42
34310;BMP280;61664;48.112;11.662;2022-11-15T07:03:41;95158.16;;;6.41
34310;BMP280;61664;48.112;11.662;2022-11-15T07:06:09;95142.78;;;6.36
34310;BMP280;61664;48.112;11.662;2022-11-15T07:08:36;95145.31;;;6.39
34310;BMP280;61664;48.112;11.662;2022-11-15T07:11:07;95152.06;;;6.53
34310;BMP280;61664;48.112;11.662;2022-11-15T07:13:35;95165.53;;;6.58
34310;BMP280;61664;48.112;11.662;2022-11-15T07:16:06;95157.09;;;6.60
34310;BMP280;61664;48.112;11.662;2022-11-15T07:18:36;95144.09;;;6.53
34310;BMP280;61664;48.112;11.662;2022-11-15T07:21:06;95148.47;;;6.69
34310;BMP280;61664;48.112;11.662;2022-11-15T07:23:37;95153.53;;;6.76
34310;BMP280;61664;48.112;11.662;2022-11-15T07:26:05;95149.56;;;6.80
34310;BMP280;61664;48.112;11.662;2022-11-15T07:28:32;95152.25;;;6.89
34310;BMP280;61664;48.112;11.662;2022-11-15T07:31:05;95152.28;;;6.99
34310;BMP280;61664;48.112;11.662;2022-11-15T07:33:32;95157.22;;;7.09
34310;BMP280;61664;48.112;11.662;2022-11-15T07:36:02;95155.69;;;7.21
34310;BMP280;61664;48.112;11.662;2022-11-15T07:38:29;95161.88;;;7.27
34310;BMP280;61664;48.112;11.662;2022-11-15T07:40:59;95169.31;;;7.41
34310;BMP280;61664;48.112;11.662;2022-11-15T07:43:26;95171.56;;;7.52
34310;BMP280;61664;48.112;11.662;2022-11-15T07:45:57;95160.19;;;7.60
34310;BMP280;61664;48.112;11.662;2022-11-15T07:48:25;95155.19;;;7.72
34310;BMP280;61664;48.112;11.662;2022-11-15T07:51:12;95159.78;;;7.89
34310;BMP280;61664;48.112;11.662;2022-11-15T07:53:43;95164.81;;;8.06
34310;BMP280;61664;48.112;11.662;2022-11-15T07:56:11;95157.88;;;8.17
34310;BMP280;61664;48.112;11.662;2022-11-15T07:58:38;95143.81;;;8.26
34310;BMP280;61664;48.112;11.662;2022-11-15T08:01:08;95148.09;;;8.51
34310;BMP280;61664;48.112;11.662;2022-11-15T08:03:36;95150.81;;;8.84
34310;BMP280;61664;48.112;11.662;2022-11-15T08:06:03;95129.09;;;9.09
34310;BMP280;61664;48.112;11.662;2022-11-15T08:08:31;95142.25;;;9.46
34310;BMP280;61664;48.112;11.662;2022-11-15T08:10:58;95134.13;;;9.64
34310;BMP280;61664;48.112;11.662;2022-11-15T08:13:25;95131.22;;;9.77
34310;BMP280;61664;48.112;11.662;2022-11-15T08:15:58;95146.56;;;10.20
34310;BMP280;61664;48.112;11.662;2022-11-15T08:18:26;95134.78;;;10.71
34310;BMP280;61664;48.112;11.662;2022-11-15T08:20:53;95143.88;;;11.49
34310;BMP280;61664;48.112;11.662;2022-11-15T08:23:20;95127.59;;;12.19
34310;BMP280;61664;48.112;11.662;2022-11-15T08:25:46;95122.31;;;12.94
34310;BMP280;61664;48.112;11.662;2022-11-15T08:28:16;95104.81;;;13.63
34310;BMP280;61664;48.112;11.662;2022-11-15T08:30:44;95099.75;;;14.26
34310;BMP280;61664;48.112;11.662;2022-11-15T08:33:13;95085.75;;;14.78
34310;BMP280;61664;48.112;11.662;2022-11-15T08:35:42;95095.59;;;15.39
34310;BMP280;61664;48.112;11.662;2022-11-15T08:38:09;95078.41;;;15.89
34310;BMP280;61664;48.112;11.662;2022-11-15T08:40:37;95063.31;;;16.34
34310;BMP280;61664;48.112;11.662;2022-11-15T08:43:04;95063.75;;;16.87
34310;BMP280;61664;48.112;11.662;2022-11-15T08:45:35;95054.03;;;17.21
34310;BMP280;61664;48.112;11.662;2022-11-15T08:48:03;95067.72;;;17.61
34310;BMP280;61664;48.112;11.662;2022-11-15T08:50:30;95063.78;;;17.94
34310;BMP280;61664;48.112;11.662;2022-11-15T08:53:02;95068.91;;;18.24
34310;BMP280;61664;48.112;11.662;2022-11-15T08:55:30;95063.72;;;18.39
34310;BMP280;61664;48.112;11.662;2022-11-15T08:57:58;95067.81;;;18.46
34310;BMP280;61664;48.112;11.662;2022-11-15T09:00:24;95059.28;;;18.42
34310;BMP280;61664;48.112;11.662;2022-11-15T09:02:51;95061.66;;;18.45
34310;BMP280;61664;48.112;11.662;2022-11-15T09:05:18;95076.53;;;18.52
34310;BMP280;61664;48.112;11.662;2022-11-15T09:07:45;95078.63;;;18.46
34310;BMP280;61664;48.112;11.662;2022-11-15T09:10:12;95080.06;;;18.47
34310;BMP280;61664;48.112;11.662;2022-11-15T09:12:39;95077.69;;;18.43
34310;BMP280;61664;48.112;11.662;2022-11-15T09:15:06;95077.19;;;18.31
34310;BMP280;61664;48.112;11.662;2022-11-15T09:17:33;95076.31;;;18.23
34310;BMP280;61664;48.112;11.662;2022-11-15T09:20:00;95082.44;;;18.24
34310;BMP280;61664;48.112;11.662;2022-11-15T09:22:27;95073.50;;;18.29
34310;BMP280;61664;48.112;11.662;2022-11-15T09:24:55;95071.84;;;18.39
34310;BMP280;61664;48.112;11.662;2022-11-15T09:27:22;95066.47;;;18.52
34310;BMP280;61664;48.112;11.662;2022-11-15T09:29:48;95046.91;;;18.46
34310;BMP280;61664;48.112;11.662;2022-11-15T09:32:15;95062.91;;;18.57
34310;BMP280;61664;48.112;11.662;2022-11-15T09:34:42;95055.44;;;18.50
34310;BMP280;61664;48.112;11.662;2022-11-15T09:37:09;95046.19;;;18.46
34310;BMP280;61664;48.112;11.662;2022-11-15T09:39:36;95047.63;;;18.20
34310;BMP280;61664;48.112;11.662;2022-11-15T09:42:27;95058.44;;;18.20
34310;BMP280;61664;48.112;11.662;2022-11-15T09:45:15;95049.16;;;18.16
34310;BMP280;61664;48.112;11.662;2022-11-15T09:50:49;95028.50;;;18.31
34310;BMP280;61664;48.112;11.662;2022-11-15T09:53:31;95028.03;;;18.14
34310;BMP280;61664;48.112;11.662;2022-11-15T09:56:24;95024.59;;;18.01
34310;BMP280;61664;48.112;11.662;2022-11-15T10:04:59;94998.53;;;18.43
34310;BMP280;61664;48.112;11.662;2022-11-15T10:07:48;94998.19;;;18.73
34310;BMP280;61664;48.112;11.662;2022-11-15T10:10:39;95001.06;;;18.88
34310;BMP280;61664;48.112;11.662;2022-11-15T10:15:48;95005.06;;;19.41
34310;BMP280;61664;48.112;11.662;2022-11-15T10:21:21;94982.00;;;19.97
34310;BMP280;61664;48.112;11.662;2022-11-15T10:23:50;94990.22;;;19.84
34310;BMP280;61664;48.112;11.662;2022-11-15T10:26:17;94983.41;;;19.41
34310;BMP280;61664;48.112;11.662;2022-11-15T10:28:44;94977.53;;;18.96
34310;BMP280;61664;48.112;11.662;2022-11-15T10:31:28;94974.34;;;18.58
34310;BMP280;61664;48.112;11.662;2022-11-15T10:34:16;94965.63;;;18.39
34310;BMP280;61664;48.112;11.662;2022-11-15T10:36:58;94962.00;;;18.62
34310;BMP280;61664;48.112;11.662;2022-11-15T10:39:26;94964.13;;;18.90
34310;BMP280;61664;48.112;11.662;2022-11-15T10:44:45;94959.66;;;19.34
34310;BMP280;61664;48.112;11.662;2022-11-15T10:47:28;94944.56;;;19.67
34310;BMP280;61664;48.112;11.662;2022-11-15T10:50:28;94945.69;;;20.36
34310;BMP280;61664;48.112;11.662;2022-11-15T10:52:55;94944.06;;;21.07
34310;BMP280;61664;48.112;11.662;2022-11-15T10:55:30;94944.78;;;21.76
34310;BMP280;61664;48.112;11.662;2022-11-15T10:58:20;94926.09;;;22.35
34310;BMP280;61664;48.112;11.662;2022-11-15T11:00:48;94925.25;;;22.65
34310;BMP280;61664;48.112;11.662;2022-11-15T11:03:35;94923.41;;;22.67
34310;BMP280;61664;48.112;11.662;2022-11-15T11:06:18;94922.47;;;22.40
34310;BMP280;61664;48.112;11.662;2022-11-15T11:09:39;94926.97;;;21.98
34310;BMP280;61664;48.112;11.662;2022-11-15T11:12:11;94913.63;;;21.62
34310;BMP280;61664;48.112;11.662;2022-11-15T11:14:39;94912.22;;;21.23
34310;BMP280;61664;48.112;11.662;2022-11-15T11:20:37;94888.38;;;20.47
34310;BMP280;61664;48.112;11.662;2022-11-15T11:24:04;94877.34;;;20.45
34310;BMP280;61664;48.112;11.662;2022-11-15T11:32:34;94902.13;;;20.42
34310;BMP280;61664;48.112;11.662;2022-11-15T11:35:41;94896.09;;;20.28
34310;BMP280;61664;48.112;11.662;2022-11-15T11:38:48;94891.03;;;19.88
34310;BMP280;61664;48.112;11.662;2022-11-15T11:41:47;94892.63;;;19.56
34310;BMP280;61664;48.112;11.662;2022-11-15T11:44:50;94889.69;;;19.25
34310;BMP280;61664;48.112;11.662;2022-11-15T11:47:32;94873.94;;;18.95
34310;BMP280;61664;48.112;11.662;2022-11-15T11:50:26;94847.34;;;18.52
34310;BMP280;61664;48.112;11.662;2022-11-15T11:53:01;94868.34;;;18.59
34310;BMP280;61664;48.112;11.662;2022-11-15T11:55:50;94872.13;;;18.43
34310;BMP280;61664;48.112;11.662;2022-11-15T11:58:36;94852.44;;;18.22
34310;BMP280;61664;48.112;11.662;2022-11-15T12:01:30;94843.59;;;18.08
34310;BMP280;61664;48.112;11.662;2022-11-15T12:06:38;94840.19;;;17.94
34310;BMP280;61664;48.112;11.662;2022-11-15T12:09:33;94848.28;;;17.94
34310;BMP280;61664;48.112;11.662;2022-11-15T12:15:09;94836.22;;;18.22
34310;BMP280;61664;48.112;11.662;2022-11-15T12:17:40;94834.09;;;18.28
34310;BMP280;61664;48.112;11.662;2022-11-15T12:20:20;94829.75;;;18.25
34310;BMP280;61664;48.112;11.662;2022-11-15T12:22:59;94826.34;;;18.11
34310;BMP280;61664;48.112;11.662;2022-11-15T12:25:36;94829.19;;;17.92
34310;BMP280;61664;48.112;11.662;2022-11-15T12:31:01;94809.31;;;17.77
34310;BMP280;61664;48.112;11.662;2022-11-15T12:33:40;94825.44;;;17.82
34310;BMP280;61664;48.112;11.662;2022-11-15T12:38:59;94819.09;;;17.93
34310;BMP280;61664;48.112;11.662;2022-11-15T12:41:32;94823.97;;;17.94
34310;BMP280;61664;48.112;11.662;2022-11-15T12:44:00;94821.06;;;17.92
34310;BMP280;61664;48.112;11.662;2022-11-15T12:49:09;94808.91;;;17.86
34310;BMP280;61664;48.112;11.662;2022-11-15T13:00:36;94810.44;;;18.21
34310;BMP280;61664;48.112;11.662;2022-11-15T13:03:21;94803.56;;;18.20
34310;BMP280;61664;48.112;11.662;2022-11-15T13:05:58;94801.78;;;18.22
34310;BMP280;61664;48.112;11.662;2022-11-15T13:11:50;94797.09;;;18.23
34310;BMP280;61664;48.112;11.662;2022-11-15T13:17:47;94789.84;;;18.18
34310;BMP280;61664;48.112;11.662;2022-11-15T13:23:11;94796.47;;;18.30
34310;BMP280;61664;48.112;11.662;2022-11-15T13:31:22;94765.47;;;18.73
34310;BMP280;61664;48.112;11.662;2022-11-15T13:33:51;94774.50;;;18.96
34310;BMP280;61664;48.112;11.662;2022-11-15T13:36:23;94769.66;;;19.02
34310;BMP280;61664;48.112;11.662;2022-11-15T13:41:30;94778.03;;;19.12
34310;BMP280;61664;48.112;11.662;2022-11-15T13:43:59;94778.78;;;19.12
34310;BMP280;61664;48.112;11.662;2022-11-15T13:46:32;94775.13;;;19.09
34310;BMP280;61664;48.112;11.662;2022-11-15T13:49:09;94774.22;;;19.07
34310;BMP280;61664;48.112;11.662;2022-11-15T13:51:53;94766.03;;;18.99
34310;BMP280;61664;48.112;11.662;2022-11-15T13:54:28;94770.53;;;18.97
34310;BMP280;61664;48.112;11.662;2022-11-15T13:57:04;94766.00;;;18.92
34310;BMP280;61664;48.112;11.662;2022-11-15T13:59:44;94761.16;;;18.98
34310;BMP280;61664;48.112;11.662;2022-11-15T14:02:16;94762.81;;;19.01
34310;BMP280;61664;48.112;11.662;2022-11-15T14:04:58;94747.59;;;18.98
34310;BMP280;61664;48.112;11.662;2022-11-15T14:07:28;94759.81;;;19.12
34310;BMP280;61664;48.112;11.662;2022-11-15T14:09:56;94763.09;;;19.18
34310;BMP280;61664;48.112;11.662;2022-11-15T14:15:18;94765.00;;;19.38
34310;BMP280;61664;48.112;11.662;2022-11-15T14:17:45;94770.25;;;19.36
34310;BMP280;61664;48.112;11.662;2022-11-15T14:23:00;94779.53;;;19.20
34310;BMP280;61664;48.112;11.662;2022-11-15T14:25:30;94768.63;;;19.05
34310;BMP280;61664;48.112;11.662;2022-11-15T14:30:49;94765.75;;;18.61
34310;BMP280;61664;48.112;11.662;2022-11-15T14:33:31;94780.94;;;18.64
34310;BMP280;61664;48.112;11.662;2022-11-15T14:36:06;94776.09;;;18.50
34310;BMP280;61664;48.112;11.662;2022-11-15T14:38:36;94780.19;;;18.43
34310;BMP280;61664;48.112;11.662;2022-11-15T14:41:04;94779.16;;;18.33
34310;BMP280;61664;48.112;11.662;2022-11-15T14:43:31;94767.66;;;18.19
34310;BMP280;61664;48.112;11.662;2022-11-15T14:45:58;94766.81;;;18.04
34310;BMP280;61664;48.112;11.662;2022-11-15T14:48:25;94787.78;;;17.98
34310;BMP280;61664;48.112;11.662;2022-11-15T14:50:52;94787.84;;;17.84
34310;BMP280;61664;48.112;11.662;2022-11-15T14:53:19;94774.41;;;17.66
34310;BMP280;61664;48.112;11.662;2022-11-15T14:55:47;94771.53;;;17.64
34310;BMP280;61664;48.112;11.662;2022-11-15T14:58:14;94773.94;;;17.54
34310;BMP280;61664;48.112;11.662;2022-11-15T15:00:41;94758.75;;;17.38
34310;BMP280;61664;48.112;11.662;2022-11-15T15:03:09;94757.69;;;17.28
34310;BMP280;61664;48.112;11.662;2022-11-15T15:05:42;94762.28;;;17.19
34310;BMP280;61664;48.112;11.662;2022-11-15T15:08:10;94741.78;;;16.98
34310;BMP280;61664;48.112;11.662;2022-11-15T15:10:44;94767.25;;;17.02
34310;BMP280;61664;48.112;11.662;2022-11-15T15:13:23;94755.56;;;16.81
34310;BMP280;61664;48.112;11.662;2022-11-15T15:15:51;94764.06;;;16.72
34310;BMP280;61664;48.112;11.662;2022-11-15T15:18:19;94764.00;;;16.59
34310;BMP280;61664;48.112;11.662;2022-11-15T15:20:58;94760.03;;;16.46
34310;BMP280;61664;48.112;11.662;2022-11-15T15:23:33;94753.94;;;16.27
34310;BMP280;61664;48.112;11.662;2022-11-15T15:26:02;94769.94;;;16.20
34310;BMP280;61664;48.112;11.662;2022-11-15T15:28:29;94770.16;;;16.03
34310;BMP280;61664;48.112;11.662;2022-11-15T15:31:01;94746.63;;;15.85
34310;BMP280;61664;48.112;11.662;2022-11-15T15:33:28;94763.66;;;15.74
34310;BMP280;61664;48.112;11.662;2022-11-15T15:35:55;94759.84;;;15.64
34310;BMP280;61664;48.112;11.662;2022-11-15T15:38:21;94753.63;;;15.50
34310;BMP280;61664;48.112;11.662;2022-11-15T15:40:49;94758.91;;;15.37
34310;BMP280;61664;48.112;11.662;2022-11-15T15:43:17;94769.50;;;15.29
34310;BMP280;61664;48.112;11.662;2022-11-15T15:45:45;94763.06;;;15.14
34310;BMP280;61664;48.112;11.662;2022-11-15T15:48:16;94757.78;;;15.02
34310;BMP280;61664;48.112;11.662;2022-11-15T15:50:44;94751.56;;;14.83
34310;BMP280;61664;48.112;11.662;2022-11-15T15:53:12;94761.66;;;14.77
34310;BMP280;61664;48.112;11.662;2022-11-15T15:55:40;94759.31;;;14.62
34310;BMP280;61664;48.112;11.662;2022-11-15T16:00:36;94751.63;;;14.42
34310;BMP280;61664;48.112;11.662;2022-11-15T16:03:03;94754.88;;;14.29
34310;BMP280;61664;48.112;11.662;2022-11-15T16:05:30;94763.19;;;14.26
34310;BMP280;61664;48.112;11.662;2022-11-15T16:07:57;94760.56;;;14.15
34310;BMP280;61664;48.112;11.662;2022-11-15T16:10:29;94764.03;;;14.04